Fanning Springs, Florida
Current Conditions -  °F | °C
As of 9:15 PM on Monday 22 Dec 2014 (Local Time) from KGNV Reporting Station
Overcast Overcast  
Wind Chill: 71°   Ceiling: 1900
Heat Index: 71°   Visibility: 7mi
Dew Point: 70°   Wind: 6mph
Humidity: 96%   Direction: 170°S
Pressure: 29.93"   Gusts: NA
Location:  29.655°N, 82.7854°W
Report Text: KGNV 230215Z 17005KT 7SM SCT013 BKN019 OVC048 22/21 A2993 RMK AO2 LTG DSNT W-N RAE05 P0001 T02170211
Loading
Personal Weather Stations






























Interactive Weather Map New forecast layout! Learn more

10-Day Weather Forecast

Advertisements
Track Severe Weather on mobile